Lorraine — A8IZ3 — position and weather

sailwx.info

Track history (hours):
 
Tides and Currents Weather Stations Pressure Air Temp Water Temp Dewpoint Dewpoint Depression Visibility Wind Speed Wind Dir Waves Ship Positions

Lorraine

Last reported at 2016-Aug-21 23:33 UTC. Time now 2016-Aug-25 04:34 UTC.
Position N 22°24' E 113°53'.

Length 221 m; draft 10 m.

Type: Ship. MMSI: 636012905.

Date/timePositionNaut miles runAvg speedWind from/ knotsBaromVisibWave heightAir tempDewpointWater temp
2016-Aug-21 23:33N 22°24' E 113°53'3 2.8
2016-Aug-21 22:27N 22°27' E 113°53'0 0.0
2016-Aug-21 21:33N 22°27' E 113°53'0 0.0
2016-Aug-21 20:32N 22°27' E 113°53'0 0.0
2016-Aug-21 19:32N 22°27' E 113°53'0 0.0
2016-Aug-21 18:31N 22°27' E 113°53'0 0.0
2016-Aug-21 17:31N 22°27' E 113°53'0 0.0
2016-Aug-21 16:24N 22°27' E 113°53'0 0.0
2016-Aug-21 15:24N 22°27' E 113°53'0 0.0
2016-Aug-21 14:23N 22°27' E 113°53'0 0.0
2016-Aug-21 13:06N 22°27' E 113°53'2 3.7
2016-Aug-21 12:33N 22°25' E 113°53'9 7.5
2016-Aug-21 11:19N 22°21' E 114°02'4 1.1
2016-Aug-21 07:33N 22°19' E 114°06'1 0.4
2016-Aug-21 04:16N 22°20' E 114°07'0 0.0
2016-Aug-20 19:11N 22°20' E 114°07'20 7.8
2016-Aug-20 16:33N 22°07' E 114°24'  
2016-Aug-15 15:20N 36°32' E 122°21'1012.9
2016-Aug-15 14:33N 36°38' E 122°31'1712.7
2016-Aug-15 13:14N 36°52' E 122°42'912.6
2016-Aug-15 12:33N 36°59' E 122°48'1212.4
2016-Aug-15 11:33N 37°09' E 122°57'9613.7
2016-Aug-15 04:33N 38°37' E 122°07'1414.4
2016-Aug-15 03:34N 38°50' E 121°58'11 1.2
2016-Aug-14 18:20N 39°00' E 121°54'911.2
2016-Aug-14 17:33N 38°52' E 121°56'1515.3
2016-Aug-14 16:34N 38°38' E 121°49'1515.3
2016-Aug-14 15:34N 38°28' E 121°34'1717.0
2016-Aug-14 14:33N 38°28' E 121°12'1716.6
2016-Aug-14 13:31N 38°33' E 120°51'1616.9
2016-Aug-14 12:34N 38°35' E 120°31'1716.7
2016-Aug-14 11:33N 38°37' E 120°09'1716.6
2016-Aug-14 10:33N 38°39' E 119°48'1916.5
2016-Aug-14 09:24N 38°42' E 119°24'1416.4
2016-Aug-14 08:33N 38°44' E 119°07'1716.6
2016-Aug-14 07:30N 38°47' E 118°44'2116.9
2016-Aug-14 06:16N 38°50' E 118°18'2414.3
2016-Aug-14 04:33N 38°58' E 117°48'1 0.9
2016-Aug-14 03:32N 38°59' E 117°47'0 0.0
2016-Aug-14 02:32N 38°59' E 117°47'0 0.0
2016-Aug-14 01:31N 38°59' E 117°47'0 0.0
2016-Aug-14 00:25N 38°59' E 117°47'0 0.0
2016-Aug-13 23:18N 38°59' E 117°47'0 0.0
2016-Aug-13 22:24N 38°59' E 117°47'0 0.0
2016-Aug-13 21:29N 38°59' E 117°47'0 0.0
2016-Aug-13 20:29N 38°59' E 117°47'0 0.0
2016-Aug-13 19:28N 38°59' E 117°47'0 0.0
2016-Aug-13 18:28N 38°59' E 117°47'0 0.0
2016-Aug-13 17:28N 38°59' E 117°47'0 0.0
2016-Aug-13 16:33N 38°59' E 117°47'0 0.0
2016-Aug-13 15:33N 38°59' E 117°47'3 2.8
2016-Aug-13 14:33N 38°58' E 117°51'1110.7
2016-Aug-13 13:31N 38°56' E 118°05'1010.2
2016-Aug-13 12:33N 38°52' E 118°16'5 4.8
2016-Aug-13 11:33N 38°51' E 118°22'78 8.5
2016-Aug-13 02:21N 38°43' E 120°01'2212.5
2016-Aug-13 00:33N 38°39' E 120°30'1212.2
2016-Aug-12 23:32N 38°37' E 120°45'1111.7
2016-Aug-12 22:33N 38°34' E 120°60'1212.2
2016-Aug-12 21:33N 38°28' E 121°13'1211.3
2016-Aug-12 20:27N 38°22' E 121°27'1110.9
2016-Aug-12 19:25N 38°16' E 121°40'1110.7
2016-Aug-12 18:23N 38°11' E 121°52'1310.7
2016-Aug-12 17:10N 38°04' E 122°06'710.9
2016-Aug-12 16:32N 38°01' E 122°13'2110.5
2016-Aug-12 14:31N 37°50' E 122°36'2210.3
2016-Aug-12 12:23N 37°38' E 122°60'13 9.9
2016-Aug-12 11:03N 37°25' E 123°03'511.1
2016-Aug-12 10:33N 37°19' E 123°03'1310.9
2016-Aug-12 09:24N 37°07' E 123°04'1011.3
2016-Aug-12 08:30N 36°57' E 123°06'  
Track history (hours):
 
Tides and Currents Weather Stations Pressure Air Temp Water Temp Dewpoint Dewpoint Depression Visibility Wind Speed Wind Dir Waves Ship Positions

Lorraine

Last reported at 2016-Aug-21 23:33 UTC. Time now 2016-Aug-25 04:34 UTC.
Position N 22°24' E 113°53'.

Length 221 m; draft 10 m.

Type: Ship. MMSI: 636012905.

Date/timePositionNaut miles runAvg speedWind from/ knotsBaromVisibWave heightAir tempDewpointWater temp
2016-Aug-21 23:33N 22°24' E 113°53'3 2.8
2016-Aug-21 22:27N 22°27' E 113°53'0 0.0
2016-Aug-21 21:33N 22°27' E 113°53'0 0.0
2016-Aug-21 20:32N 22°27' E 113°53'0 0.0
2016-Aug-21 19:32N 22°27' E 113°53'0 0.0
2016-Aug-21 18:31N 22°27' E 113°53'0 0.0
2016-Aug-21 17:31N 22°27' E 113°53'0 0.0
2016-Aug-21 16:24N 22°27' E 113°53'0 0.0
2016-Aug-21 15:24N 22°27' E 113°53'0 0.0
2016-Aug-21 14:23N 22°27' E 113°53'0 0.0
2016-Aug-21 13:06N 22°27' E 113°53'2 3.7
2016-Aug-21 12:33N 22°25' E 113°53'9 7.5
2016-Aug-21 11:19N 22°21' E 114°02'4 1.1
2016-Aug-21 07:33N 22°19' E 114°06'1 0.4
2016-Aug-21 04:16N 22°20' E 114°07'0 0.0
2016-Aug-20 19:11N 22°20' E 114°07'20 7.8
2016-Aug-20 16:33N 22°07' E 114°24'  
2016-Aug-15 15:20N 36°32' E 122°21'1012.9
2016-Aug-15 14:33N 36°38' E 122°31'1712.7
2016-Aug-15 13:14N 36°52' E 122°42'912.6
2016-Aug-15 12:33N 36°59' E 122°48'1212.4
2016-Aug-15 11:33N 37°09' E 122°57'9613.7
2016-Aug-15 04:33N 38°37' E 122°07'1414.4
2016-Aug-15 03:34N 38°50' E 121°58'11 1.2
2016-Aug-14 18:20N 39°00' E 121°54'911.2
2016-Aug-14 17:33N 38°52' E 121°56'1515.3
2016-Aug-14 16:34N 38°38' E 121°49'1515.3
2016-Aug-14 15:34N 38°28' E 121°34'1717.0
2016-Aug-14 14:33N 38°28' E 121°12'1716.6
2016-Aug-14 13:31N 38°33' E 120°51'1616.9
2016-Aug-14 12:34N 38°35' E 120°31'1716.7
2016-Aug-14 11:33N 38°37' E 120°09'1716.6
2016-Aug-14 10:33N 38°39' E 119°48'1916.5
2016-Aug-14 09:24N 38°42' E 119°24'1416.4
2016-Aug-14 08:33N 38°44' E 119°07'1716.6
2016-Aug-14 07:30N 38°47' E 118°44'2116.9
2016-Aug-14 06:16N 38°50' E 118°18'2414.3
2016-Aug-14 04:33N 38°58' E 117°48'1 0.9
2016-Aug-14 03:32N 38°59' E 117°47'0 0.0
2016-Aug-14 02:32N 38°59' E 117°47'0 0.0
2016-Aug-14 01:31N 38°59' E 117°47'0 0.0
2016-Aug-14 00:25N 38°59' E 117°47'0 0.0
2016-Aug-13 23:18N 38°59' E 117°47'0 0.0
2016-Aug-13 22:24N 38°59' E 117°47'0 0.0
2016-Aug-13 21:29N 38°59' E 117°47'0 0.0
2016-Aug-13 20:29N 38°59' E 117°47'0 0.0
2016-Aug-13 19:28N 38°59' E 117°47'0 0.0
2016-Aug-13 18:28N 38°59' E 117°47'0 0.0
2016-Aug-13 17:28N 38°59' E 117°47'0 0.0
2016-Aug-13 16:33N 38°59' E 117°47'0 0.0
2016-Aug-13 15:33N 38°59' E 117°47'3 2.8
2016-Aug-13 14:33N 38°58' E 117°51'1110.7
2016-Aug-13 13:31N 38°56' E 118°05'1010.2
2016-Aug-13 12:33N 38°52' E 118°16'5 4.8
2016-Aug-13 11:33N 38°51' E 118°22'78 8.5
2016-Aug-13 02:21N 38°43' E 120°01'2212.5
2016-Aug-13 00:33N 38°39' E 120°30'1212.2
2016-Aug-12 23:32N 38°37' E 120°45'1111.7
2016-Aug-12 22:33N 38°34' E 120°60'1212.2
2016-Aug-12 21:33N 38°28' E 121°13'1211.3
2016-Aug-12 20:27N 38°22' E 121°27'1110.9
2016-Aug-12 19:25N 38°16' E 121°40'1110.7
2016-Aug-12 18:23N 38°11' E 121°52'1310.7
2016-Aug-12 17:10N 38°04' E 122°06'710.9
2016-Aug-12 16:32N 38°01' E 122°13'2110.5
2016-Aug-12 14:31N 37°50' E 122°36'2210.3
2016-Aug-12 12:23N 37°38' E 122°60'13 9.9
2016-Aug-12 11:03N 37°25' E 123°03'511.1
2016-Aug-12 10:33N 37°19' E 123°03'1310.9
2016-Aug-12 09:24N 37°07' E 123°04'1011.3
2016-Aug-12 08:30N 36°57' E 123°06'  

Dump ship's entire track history